Time;durP1;ratioP1;P1;durP2;ratioP2;P2;SDS_P1;SDS_P2;PMS_P1;PMS_P2;Temp;Humidity;BMP_temperature;BMP_pressure;BME280_temperature;BME280_humidity;BME280_pressure;Samples;Min_cycle;Max_cycle;Signal;HPM_P1;HPM_P2
2023/05/29 00:00:26;;;;;;;9.60;4.73;;;21.20;99.90;;;;;;6128982;23;20202;-92
2023/05/29 00:02:58;;;;;;;11.33;4.90;;;21.40;99.90;;;;;;6103899;23;20185;-91
2023/05/29 00:05:31;;;;;;;10.93;5.37;;;21.50;99.90;;;;;;6130979;23;20256;-91
2023/05/29 00:08:03;;;;;;;10.90;5.10;;;21.60;99.90;;;;;;6128461;23;20261;-92
2023/05/29 00:10:35;;;;;;;10.97;4.73;;;21.70;99.90;;;;;;6105339;23;20189;-92
2023/05/29 00:13:06;;;;;;;7.80;4.60;;;21.70;99.90;;;;;;6129103;23;20198;-93
2023/05/29 00:15:39;;;;;;;8.23;4.50;;;21.60;99.90;;;;;;6127310;23;20273;-93
2023/05/29 00:18:12;;;;;;;9.80;4.70;;;21.60;99.90;;;;;;6126439;23;20563;-93
2023/05/29 00:20:43;;;;;;;11.50;5.07;;;21.60;99.90;;;;;;6127511;23;20262;-93
2023/05/29 00:23:15;;;;;;;11.87;4.80;;;21.30;99.90;;;;;;6130034;23;20447;-93
2023/05/29 00:25:47;;;;;;;9.47;4.87;;;21.00;99.90;;;;;;6103111;23;20182;-92
2023/05/29 00:28:21;;;;;;;11.80;4.90;;;21.10;99.90;;;;;;6127387;23;20185;-92
2023/05/29 00:30:55;;;;;;;8.40;4.53;;;21.30;99.90;;;;;;6129005;23;20197;-93
2023/05/29 00:33:27;;;;;;;11.40;5.00;;;21.20;99.90;;;;;;6128207;23;20174;-93
2023/05/29 00:35:58;;;;;;;10.17;4.83;;;21.00;99.90;;;;;;6127243;23;20206;-93
2023/05/29 00:38:31;;;;;;;10.80;5.10;;;21.10;99.90;;;;;;6127471;23;20186;-93
2023/05/29 00:41:02;;;;;;;10.33;4.80;;;21.00;99.90;;;;;;6127863;23;20197;-94
2023/05/29 00:43:34;;;;;;;11.70;5.00;;;20.70;99.90;;;;;;6128182;23;20186;-94
2023/05/29 00:46:14;;;;;;;9.93;4.70;;;20.70;99.90;;;;;;6082996;23;20622;-93
2023/05/29 00:48:47;;;;;;;12.90;5.40;;;20.80;99.90;;;;;;6126648;23;20693;-92
2023/05/29 00:51:19;;;;;;;12.20;5.00;;;21.00;99.90;;;;;;6102585;23;20178;-92
2023/05/29 00:53:52;;;;;;;7.57;4.53;;;21.20;99.90;;;;;;6127720;23;20188;-93
2023/05/29 00:56:25;;;;;;;11.57;5.03;;;21.70;99.90;;;;;;6102730;23;20210;-92
2023/05/29 00:58:56;;;;;;;9.93;4.93;;;22.00;99.90;;;;;;6101344;23;20194;-92
2023/05/29 01:01:32;;;;;;;11.80;4.57;;;22.30;99.90;;;;;;6129306;23;20253;-92
2023/05/29 01:04:06;;;;;;;12.27;5.23;;;22.60;99.90;;;;;;6130907;23;20245;-92
2023/05/29 01:06:38;;;;;;;9.20;4.97;;;22.80;99.90;;;;;;6151430;23;20171;-92
2023/05/29 01:09:14;;;;;;;8.10;4.37;;;23.00;99.90;;;;;;6150631;23;20178;-94
2023/05/29 01:11:56;;;;;;;9.93;4.73;;;23.10;99.90;;;;;;6135523;23;20181;-92
2023/05/29 01:17:35;;;;;;;8.87;4.53;;;24.00;99.90;;;;;;6131346;23;20633;-92
2023/05/29 01:20:21;;;;;;;9.03;4.30;;;23.60;99.90;;;;;;6126246;23;20194;-95
2023/05/29 01:23:13;;;;;;;8.20;4.67;;;23.80;99.90;;;;;;6128020;23;20217;-92
2023/05/29 01:26:01;;;;;;;8.97;4.13;;;23.80;99.90;;;;;;6127595;23;20301;-93
2023/05/29 01:28:40;;;;;;;11.10;4.43;;;23.60;99.90;;;;;;6123728;23;20178;-94
2023/05/29 01:31:14;;;;;;;9.40;4.27;;;23.30;99.90;;;;;;6127212;23;20214;-93
2023/05/29 01:33:53;;;;;;;7.50;4.23;;;23.70;99.90;;;;;;6126957;23;20181;-92
2023/05/29 01:36:26;;;;;;;7.67;3.93;;;23.30;99.90;;;;;;6126733;23;20205;-93
2023/05/29 01:38:59;;;;;;;9.43;4.37;;;23.80;99.90;;;;;;6126404;23;20206;-93
2023/05/29 01:41:33;;;;;;;6.63;3.70;;;23.90;99.90;;;;;;6127762;23;20621;-94
2023/05/29 01:44:10;;;;;;;9.90;4.10;;;24.40;99.90;;;;;;6127177;23;20184;-92
2023/05/29 01:46:45;;;;;;;7.80;4.33;;;24.10;99.90;;;;;;6128468;23;20186;-93
2023/05/29 01:49:19;;;;;;;8.63;4.00;;;24.10;99.90;;;;;;6125999;23;20191;-93
2023/05/29 01:51:51;;;;;;;10.03;4.13;;;24.10;99.90;;;;;;6126730;23;20185;-94
2023/05/29 01:54:22;;;;;;;8.37;4.20;;;24.10;99.90;;;;;;6127047;23;20196;-92
2023/05/29 01:56:54;;;;;;;5.97;4.03;;;23.30;99.90;;;;;;6127388;23;20254;-93
2023/05/29 01:59:28;;;;;;;6.87;3.80;;;23.00;99.90;;;;;;6101749;23;20250;-92
2023/05/29 02:02:06;;;;;;;10.03;3.90;;;22.70;99.90;;;;;;6127199;23;20629;-93
2023/05/29 02:04:38;;;;;;;7.10;4.00;;;22.40;99.90;;;;;;6127236;23;20198;-92
2023/05/29 02:07:12;;;;;;;5.73;3.60;;;21.90;99.90;;;;;;6101671;23;20213;-93
2023/05/29 02:09:43;;;;;;;8.87;3.93;;;21.40;99.90;;;;;;6125914;23;20266;-91
2023/05/29 02:12:15;;;;;;;7.40;3.87;;;21.10;99.90;;;;;;6126775;23;20188;-91
2023/05/29 02:14:49;;;;;;;9.07;4.30;;;20.80;99.90;;;;;;6128522;23;20253;-91
2023/05/29 02:17:20;;;;;;;6.83;3.73;;;20.60;99.90;;;;;;6127215;23;20206;-92
2023/05/29 02:19:52;;;;;;;8.73;3.67;;;20.40;99.90;;;;;;6126594;23;20194;-92
2023/05/29 02:22:24;;;;;;;5.40;3.50;;;20.10;99.90;;;;;;6126901;23;20253;-94
2023/05/29 02:24:55;;;;;;;8.70;4.07;;;19.90;99.90;;;;;;6126651;23;20214;-92
2023/05/29 02:27:27;;;;;;;6.43;3.40;;;19.90;99.90;;;;;;6104206;23;20178;-93
2023/05/29 02:30:02;;;;;;;6.93;3.83;;;19.70;99.90;;;;;;6131760;23;20193;-90
2023/05/29 02:32:34;;;;;;;8.70;4.10;;;19.60;99.90;;;;;;6134069;23;20182;-92
2023/05/29 02:35:06;;;;;;;7.00;3.83;;;19.40;99.90;;;;;;6129369;23;20198;-92
2023/05/29 02:37:37;;;;;;;8.20;4.07;;;19.40;99.90;;;;;;6128102;23;20233;-96
2023/05/29 02:40:09;;;;;;;5.57;3.73;;;19.20;99.90;;;;;;6131151;23;20257;-93
2023/05/29 02:42:41;;;;;;;7.23;3.67;;;19.10;99.90;;;;;;6130569;23;20644;-92
2023/05/29 02:45:17;;;;;;;7.03;3.60;;;19.10;99.90;;;;;;6129496;23;20178;-92
2023/05/29 02:47:48;;;;;;;9.20;3.93;;;19.10;99.90;;;;;;6129000;23;20178;-91
2023/05/29 02:50:20;;;;;;;11.10;3.93;;;19.00;99.90;;;;;;6130198;23;20175;-92
2023/05/29 02:52:51;;;;;;;8.00;4.03;;;18.90;99.90;;;;;;6129298;23;20626;-92
2023/05/29 02:55:23;;;;;;;9.40;4.10;;;18.80;99.90;;;;;;6129533;23;20209;-91
2023/05/29 02:57:55;;;;;;;6.93;4.10;;;18.70;99.90;;;;;;6130577;23;20254;-92
2023/05/29 03:00:29;;;;;;;8.67;4.17;;;18.60;99.90;;;;;;6128930;23;20617;-92
2023/05/29 03:03:01;;;;;;;6.80;3.70;;;18.60;99.90;;;;;;6106461;23;20235;-92
2023/05/29 03:05:33;;;;;;;8.63;3.93;;;18.50;99.90;;;;;;6134100;23;20187;-92
2023/05/29 03:08:05;;;;;;;9.80;4.40;;;18.50;99.90;;;;;;6134928;23;20181;-91
2023/05/29 03:10:36;;;;;;;9.43;3.80;;;18.40;99.90;;;;;;6143605;23;20170;-89
2023/05/29 03:13:08;;;;;;;9.23;4.20;;;18.30;99.90;;;;;;6139526;23;20206;-92
2023/05/29 03:15:41;;;;;;;7.47;4.03;;;18.10;99.90;;;;;;6145521;23;20193;-90
2023/05/29 03:18:13;;;;;;;7.27;4.13;;;18.00;99.90;;;;;;6146617;23;20217;-92
2023/05/29 03:20:45;;;;;;;7.23;3.73;;;18.00;99.90;;;;;;6134019;23;20234;-92
2023/05/29 03:23:16;;;;;;;7.40;3.90;;;17.90;99.90;;;;;;6130701;23;20171;-91
2023/05/29 03:25:48;;;;;;;9.27;3.97;;;17.70;99.90;;;;;;6128643;23;20186;-91
2023/05/29 03:28:20;;;;;;;6.90;3.97;;;17.70;99.90;;;;;;6102196;23;20237;-90
2023/05/29 03:30:53;;;;;;;8.60;4.23;;;17.60;99.90;;;;;;6128295;23;20185;-91
2023/05/29 03:33:26;;;;;;;5.87;3.70;;;17.50;99.90;;;;;;6127800;23;20329;-91
2023/05/29 03:35:59;;;;;;;9.10;3.80;;;17.40;99.90;;;;;;6127194;23;20280;-91
2023/05/29 03:38:30;;;;;;;9.10;4.50;;;17.30;99.90;;;;;;6126890;23;20238;-92
2023/05/29 03:41:02;;;;;;;9.17;4.10;;;17.20;99.90;;;;;;6127163;23;20166;-91
2023/05/29 03:43:33;;;;;;;7.10;3.53;;;17.10;99.90;;;;;;6127924;23;20209;-92
2023/05/29 03:46:10;;;;;;;8.67;4.20;;;17.10;99.90;;;;;;6128156;23;20182;-91
2023/05/29 03:48:41;;;;;;;6.27;3.80;;;17.00;99.90;;;;;;6126833;23;20516;-91
2023/05/29 03:51:13;;;;;;;8.70;3.70;;;16.80;99.90;;;;;;6128115;23;20178;-91
2023/05/29 03:53:45;;;;;;;9.17;4.20;;;16.70;99.90;;;;;;6127642;23;20265;-93
2023/05/29 03:56:16;;;;;;;7.93;4.07;;;16.60;99.90;;;;;;6127920;23;20257;-93
2023/05/29 03:58:48;;;;;;;10.17;4.20;;;16.50;99.90;;;;;;6126982;23;20285;-92
2023/05/29 04:01:21;;;;;;;10.57;4.30;;;16.50;99.90;;;;;;6128088;23;20175;-93
2023/05/29 04:03:53;;;;;;;7.63;3.90;;;16.40;99.90;;;;;;6128157;23;20224;-91
2023/05/29 04:06:26;;;;;;;9.07;4.40;;;16.30;99.90;;;;;;6128479;23;20213;-92
2023/05/29 04:08:57;;;;;;;9.13;4.30;;;16.20;99.90;;;;;;6126258;23;20249;-92
2023/05/29 04:11:29;;;;;;;9.03;4.20;;;16.20;99.90;;;;;;6127902;23;20257;-91
2023/05/29 04:14:03;;;;;;;11.33;5.10;;;16.10;99.90;;;;;;6103478;23;20182;-95
2023/05/29 04:16:43;;;;;;;9.93;4.90;;;16.10;99.90;;;;;;6142004;23;20177;-96
2023/05/29 04:27:18;;;;;;;8.43;4.77;;;15.80;99.90;;;;;;6095361;23;20170;-96
2023/05/29 04:48:58;;;;;;;8.27;4.87;;;15.50;99.90;;;;;;6146438;23;20224;-96
2023/05/29 04:51:52;;;;;;;8.70;4.37;;;15.40;99.90;;;;;;6204248;23;20183;-96
2023/05/29 04:54:27;;;;;;;11.83;5.40;;;15.30;99.90;;;;;;6200498;23;20176;-96
2023/05/29 05:02:17;;;;;;;11.93;4.57;;;15.20;99.90;;;;;;6121896;23;20269;-96
2023/05/29 05:04:52;;;;;;;7.20;4.80;;;15.20;99.90;;;;;;6136858;23;20218;-96
2023/05/29 05:07:33;;;;;;;11.27;4.50;;;15.20;99.90;;;;;;6135529;23;20182;-96
2023/05/29 05:10:08;;;;;;;10.53;4.70;;;15.10;99.90;;;;;;6116474;23;20269;-96
2023/05/29 05:12:44;;;;;;;13.80;5.47;;;15.10;99.90;;;;;;6139525;23;20205;-96
2023/05/29 05:15:16;;;;;;;11.97;5.97;;;15.00;99.90;;;;;;6133194;23;20184;-96
2023/05/29 05:17:49;;;;;;;9.13;4.83;;;15.00;99.90;;;;;;6129613;23;20210;-94
2023/05/29 05:20:24;;;;;;;8.67;5.17;;;15.00;99.90;;;;;;6131184;23;20178;-96
2023/05/29 05:23:01;;;;;;;8.60;4.83;;;15.00;99.90;;;;;;6144369;23;20165;-96
2023/05/29 05:25:35;;;;;;;10.27;4.90;;;15.00;99.90;;;;;;6150466;23;20166;-95
2023/05/29 05:28:08;;;;;;;8.00;4.80;;;15.00;99.90;;;;;;6146221;23;20171;-96
2023/05/29 05:30:40;;;;;;;9.90;5.50;;;14.90;99.90;;;;;;6113203;23;20239;-96
2023/05/29 05:33:12;;;;;;;9.13;4.70;;;14.90;99.90;;;;;;6113865;23;20245;-96
2023/05/29 05:35:51;;;;;;;11.83;5.20;;;14.80;99.90;;;;;;6143682;23;20193;-96
2023/05/29 05:38:26;;;;;;;7.43;4.80;;;14.80;99.90;;;;;;6131222;23;20233;-96
2023/05/29 05:41:04;;;;;;;8.43;5.20;;;14.80;99.90;;;;;;6145948;23;20226;-96
2023/05/29 05:43:39;;;;;;;7.97;5.40;;;14.70;99.90;;;;;;6143264;23;20167;-96
2023/05/29 05:46:12;;;;;;;9.43;5.00;;;14.60;99.90;;;;;;6121023;23;20277;-96
2023/05/29 05:51:44;;;;;;;10.87;5.30;;;14.40;99.90;;;;;;6151094;23;20214;-96
2023/05/29 06:18:41;;;;;;;8.80;5.37;;;14.10;99.90;;;;;;6174678;23;20221;-96
2023/05/29 06:21:23;;;;;;;10.80;6.13;;;14.10;99.90;;;;;;6145881;23;20198;-96
2023/05/29 07:39:42;;;;;;;12.27;5.93;;;13.10;99.90;;;;;;6140223;23;20233;-95
2023/05/29 07:42:19;;;;;;;11.47;5.80;;;13.10;99.90;;;;;;6144955;23;20183;-96
2023/05/29 07:44:56;;;;;;;10.70;5.43;;;13.00;99.90;;;;;;6147038;23;20174;-96
2023/05/29 07:47:32;;;;;;;11.07;5.60;;;12.90;99.90;;;;;;6146839;23;20189;-96
2023/05/29 07:50:09;;;;;;;12.33;5.90;;;12.90;99.90;;;;;;6142441;23;20166;-96
2023/05/29 07:52:43;;;;;;;10.80;6.03;;;12.90;99.90;;;;;;6119223;23;20170;-96
2023/05/29 15:41:49;;;;;;;22.07;11.57;;;12.70;99.90;;;;;;6126514;23;20256;-95
2023/05/29 15:46:59;;;;;;;32.67;11.43;;;12.80;99.90;;;;;;6129455;23;20437;-96
2023/05/29 15:52:37;;;;;;;24.37;10.60;;;13.10;99.90;;;;;;6143524;23;20224;-96
2023/05/29 16:11:37;;;;;;;30.50;11.17;;;13.50;99.90;;;;;;6157923;23;20311;-95
2023/05/29 16:14:09;;;;;;;32.43;10.73;;;13.50;99.90;;;;;;6147487;23;20229;-96
2023/05/29 16:16:43;;;;;;;26.17;10.77;;;13.40;99.90;;;;;;6143222;23;20197;-95
2023/05/29 16:19:27;;;;;;;25.10;11.17;;;13.40;99.90;;;;;;6139252;23;20206;-96
2023/05/29 16:22:06;;;;;;;22.83;10.63;;;13.40;99.90;;;;;;6144006;23;20174;-96
2023/05/29 16:24:46;;;;;;;27.07;10.40;;;13.50;99.90;;;;;;6146913;23;20214;-96
2023/05/29 16:27:21;;;;;;;27.80;10.67;;;13.40;99.90;;;;;;6143580;23;20226;-96
2023/05/29 16:35:14;;;;;;;26.77;10.90;;;13.60;99.90;;;;;;6137364;23;20297;-96
2023/05/29 16:37:52;;;;;;;26.93;11.53;;;13.60;99.90;;;;;;6135150;23;20255;-96
2023/05/29 16:40:25;;;;;;;23.93;9.83;;;13.60;99.90;;;;;;6126403;23;20198;-96
2023/05/29 16:43:00;;;;;;;17.33;9.33;;;13.60;99.90;;;;;;6127742;23;20202;-96
2023/05/29 16:45:37;;;;;;;17.83;8.03;;;13.50;99.90;;;;;;6141313;23;20246;-96
2023/05/29 16:48:15;;;;;;;12.90;8.23;;;13.50;99.90;;;;;;6141253;23;20183;-96
2023/05/29 16:50:52;;;;;;;15.97;8.20;;;13.50;99.90;;;;;;6140578;23;20182;-96
2023/05/29 17:04:13;;;;;;;17.57;7.67;;;13.60;99.90;;;;;;6163638;23;20225;-95
2023/05/29 17:06:55;;;;;;;11.07;7.93;;;13.80;99.90;;;;;;6144632;23;20186;-96
2023/05/29 17:09:27;;;;;;;14.93;7.43;;;13.70;99.90;;;;;;6146342;23;20181;-96
2023/05/29 17:12:03;;;;;;;15.37;7.80;;;13.80;99.90;;;;;;6147780;23;20166;-96
2023/05/29 17:14:49;;;;;;;13.97;8.00;;;13.70;99.90;;;;;;6148496;23;20178;-96
2023/05/29 17:17:42;;;;;;;16.43;8.93;;;13.90;99.90;;;;;;6142357;23;20226;-96
2023/05/29 17:20:18;;;;;;;17.07;9.37;;;14.10;99.90;;;;;;6147947;23;20194;-96
2023/05/29 17:22:52;;;;;;;16.93;8.50;;;14.10;99.90;;;;;;6133003;23;20213;-96
2023/05/29 17:25:29;;;;;;;11.47;7.93;;;14.10;99.90;;;;;;6201911;23;20196;-96
2023/05/29 17:28:02;;;;;;;16.87;8.20;;;14.00;99.90;;;;;;6202319;23;20184;-96
2023/05/29 17:30:37;;;;;;;14.33;9.27;;;14.10;99.90;;;;;;6194917;23;20264;-96
2023/05/29 17:33:11;;;;;;;15.93;9.60;;;14.00;99.90;;;;;;6174148;23;20236;-96
2023/05/29 17:35:50;;;;;;;15.10;8.83;;;14.00;99.90;;;;;;6197819;23;20196;-95
2023/05/29 17:38:24;;;;;;;15.53;9.70;;;13.70;99.90;;;;;;6202743;23;20200;-94
2023/05/29 17:40:55;;;;;;;12.73;9.23;;;13.60;99.90;;;;;;6201866;23;20212;-96
2023/05/29 17:43:28;;;;;;;13.83;9.23;;;13.80;99.90;;;;;;6211665;23;20172;-96
2023/05/29 17:46:01;;;;;;;20.03;9.43;;;14.10;99.90;;;;;;6209477;23;20180;-96
2023/05/29 17:48:34;;;;;;;14.43;9.23;;;13.90;99.90;;;;;;6184601;23;20176;-96
2023/05/29 17:51:11;;;;;;;14.53;9.77;;;13.70;99.90;;;;;;6211515;23;20285;-96
2023/05/29 17:53:44;;;;;;;14.17;9.23;;;13.60;99.90;;;;;;6208348;23;20173;-96
2023/05/29 17:56:20;;;;;;;14.30;9.80;;;13.80;99.90;;;;;;6209937;23;20172;-96
2023/05/29 17:58:53;;;;;;;14.07;9.13;;;13.50;99.90;;;;;;6178818;23;20173;-96
2023/05/29 18:04:08;;;;;;;18.47;10.93;;;13.80;99.90;;;;;;6154568;23;20217;-96
2023/05/29 18:06:45;;;;;;;12.97;9.13;;;13.90;99.90;;;;;;6151725;23;20185;-96
2023/05/29 18:09:20;;;;;;;14.40;9.60;;;14.20;99.90;;;;;;6145337;23;20182;-96
2023/05/29 18:11:54;;;;;;;16.23;10.03;;;14.30;99.90;;;;;;6095563;23;21158;-96
2023/05/29 18:14:37;;;;;;;18.77;9.73;;;14.40;99.90;;;;;;6137177;23;20257;-96
2023/05/29 18:17:09;;;;;;;19.63;9.67;;;14.40;99.90;;;;;;6113754;23;20669;-96
2023/05/29 18:19:43;;;;;;;16.37;9.83;;;14.50;99.90;;;;;;6092758;23;20173;-96
2023/05/29 18:22:20;;;;;;;15.10;10.50;;;14.70;99.90;;;;;;6123013;23;20230;-96
2023/05/29 18:24:52;;;;;;;12.63;10.30;;;14.90;99.90;;;;;;6146226;23;20193;-96
2023/05/29 18:27:24;;;;;;;20.00;11.33;;;14.90;99.90;;;;;;6153669;23;20169;-95
2023/05/29 18:43:24;;;;;;;20.50;11.27;;;14.50;99.90;;;;;;6133898;23;20285;-96
2023/05/29 18:48:32;;;;;;;18.50;10.50;;;14.40;99.90;;;;;;6102682;23;20204;-96
2023/05/29 18:53:41;;;;;;;17.77;10.90;;;14.50;99.90;;;;;;6138797;23;20208;-96
2023/05/29 19:17:46;;;;;;;15.67;11.00;;;14.60;99.90;;;;;;6158493;23;20220;-96
2023/05/29 19:20:25;;;;;;;17.07;11.07;;;14.70;99.90;;;;;;6180099;23;20259;-96
2023/05/29 19:47:38;;;;;;;13.63;10.10;;;15.30;99.90;;;;;;6120258;23;20170;-96
2023/05/29 19:50:24;;;;;;;12.83;9.93;;;15.40;99.90;;;;;;6121554;23;20194;-96
2023/05/29 19:55:38;;;;;;;13.13;9.13;;;15.60;99.90;;;;;;6147714;23;20277;-96
2023/05/29 20:19:54;;;;;;;;;;;;;;;;;;;;;
2023/05/29 20:22:30;;;;;;;13.47;9.23;;;16.50;99.90;;;;;;6140392;23;20212;-96
2023/05/29 20:44:03;;;;;;;11.70;8.87;;;16.00;99.90;;;;;;6161212;23;20225;-96
2023/05/29 20:46:37;;;;;;;11.87;8.73;;;16.40;99.90;;;;;;6145927;23;20178;-96
2023/05/29 20:52:01;;;;;;;14.67;9.73;;;16.80;99.90;;;;;;6143129;23;20229;-96
2023/05/29 20:57:35;;;;;;;14.00;8.87;;;17.00;99.90;;;;;;6146940;23;20234;-96
2023/05/29 21:00:12;;;;;;;10.43;8.60;;;17.30;99.90;;;;;;6116795;23;20225;-96
2023/05/29 21:02:50;;;;;;;12.97;8.57;;;17.40;99.90;;;;;;6138448;23;20204;-96
2023/05/29 21:05:24;;;;;;;10.37;8.80;;;17.80;99.90;;;;;;6138379;23;20173;-96
2023/05/29 21:07:57;;;;;;;11.73;8.47;;;17.80;99.90;;;;;;6135677;23;20208;-96
2023/05/29 21:10:31;;;;;;;12.37;9.20;;;18.20;99.90;;;;;;6137584;23;20182;-96
2023/05/29 21:13:09;;;;;;;13.40;8.50;;;18.30;99.90;;;;;;6140902;23;20174;-96
2023/05/29 21:15:54;;;;;;;10.20;8.60;;;18.00;99.90;;;;;;6121748;23;20189;-96
2023/05/29 21:18:26;;;;;;;9.80;8.23;;;17.90;99.90;;;;;;6137416;23;20209;-96
2023/05/29 21:21:04;;;;;;;14.30;7.87;;;18.20;99.90;;;;;;6142961;23;20194;-95
2023/05/29 21:23:36;;;;;;;12.50;8.70;;;18.40;99.90;;;;;;6148809;23;20178;-96
2023/05/29 21:26:09;;;;;;;8.50;7.60;;;18.70;99.90;;;;;;6144015;23;20166;-95
2023/05/29 21:28:44;;;;;;;10.13;7.70;;;19.10;99.90;;;;;;6143148;23;20182;-96
2023/05/29 21:31:20;;;;;;;11.03;8.00;;;19.30;99.90;;;;;;6144950;23;20194;-96
2023/05/29 21:33:53;;;;;;;9.47;7.20;;;18.80;99.90;;;;;;6140922;23;20178;-96
2023/05/29 21:36:26;;;;;;;9.37;7.30;;;18.70;99.90;;;;;;6138977;23;20243;-96
2023/05/29 21:39:01;;;;;;;12.70;8.00;;;18.90;99.90;;;;;;6120562;23;20175;-96
2023/05/29 21:41:41;;;;;;;8.30;7.40;;;19.00;99.90;;;;;;6139223;23;20206;-96
2023/05/29 21:44:16;;;;;;;11.03;7.47;;;19.30;99.90;;;;;;6137421;23;20198;-96
2023/05/29 21:46:56;;;;;;;11.80;8.50;;;19.70;99.90;;;;;;6137733;23;20185;-96
2023/05/29 21:49:35;;;;;;;10.97;8.20;;;19.40;99.90;;;;;;6163218;23;20903;-94
2023/05/29 21:52:07;;;;;;;10.07;7.20;;;18.90;99.90;;;;;;6163951;23;20166;-95
2023/05/29 21:54:39;;;;;;;8.17;6.90;;;18.80;99.90;;;;;;6162892;23;20174;-96
2023/05/29 21:57:11;;;;;;;9.87;6.33;;;19.10;99.90;;;;;;6161432;23;20173;-94
2023/05/29 21:59:43;;;;;;;8.17;6.90;;;19.60;99.90;;;;;;6161795;23;20193;-96
2023/05/29 22:02:18;;;;;;;9.97;6.70;;;19.90;99.90;;;;;;6161921;23;20194;-95
2023/05/29 22:04:50;;;;;;;8.33;6.63;;;20.00;99.90;;;;;;6134915;23;20244;-95
2023/05/29 22:07:23;;;;;;;8.80;6.93;;;20.10;99.90;;;;;;6162793;23;20245;-96
2023/05/29 23:57:58;;;;;;;8.10;4.80;;;22.90;99.90;;;;;;6128526;23;20216;-95
